createdAt,value
2022-10-08T00:02:26.189Z,103.60
2022-10-08T00:05:33.310Z,75.10
2022-10-08T00:09:09.497Z,65.00
2022-10-08T00:12:45.318Z,67.70
2022-10-08T00:16:33.394Z,57.90
2022-10-08T00:20:11.062Z,52.60
2022-10-08T00:23:49.101Z,47.70
2022-10-08T00:27:34.110Z,51.10
2022-10-08T00:31:10.201Z,49.70
2022-10-08T00:34:43.380Z,46.80
2022-10-08T00:38:21.081Z,47.10
2022-10-08T00:41:42.465Z,47.50
2022-10-08T00:45:41.206Z,64.60
2022-10-08T00:49:34.801Z,43.60
2022-10-08T00:53:40.200Z,45.60
2022-10-08T00:57:44.051Z,46.60
2022-10-08T01:01:10.901Z,50.50
2022-10-08T01:05:06.448Z,45.80
2022-10-08T01:08:39.843Z,49.70
2022-10-08T01:12:10.763Z,49.20
2022-10-08T01:15:35.497Z,48.40
2022-10-08T01:19:42.320Z,50.20
2022-10-08T01:23:43.200Z,46.80
2022-10-08T01:27:33.872Z,54.40
2022-10-08T01:31:19.499Z,53.00
2022-10-08T01:35:11.798Z,53.60
2022-10-08T01:38:26.642Z,49.90
2022-10-08T01:41:56.356Z,47.70
2022-10-08T01:45:53.291Z,51.60
2022-10-08T01:49:35.817Z,51.30
2022-10-08T01:53:13.888Z,54.80
2022-10-08T01:57:17.196Z,46.10
2022-10-08T02:01:20.990Z,55.10
2022-10-08T02:05:06.912Z,51.50
2022-10-08T02:08:17.556Z,52.80
2022-10-08T02:11:50.146Z,54.90
2022-10-08T02:15:46.841Z,56.60
2022-10-08T02:19:15.738Z,56.40
2022-10-08T02:22:36.992Z,54.30
2022-10-08T02:26:21.573Z,49.60
2022-10-08T02:30:15.957Z,53.60
2022-10-08T02:34:00.374Z,50.10
2022-10-08T02:37:56.272Z,53.90
2022-10-08T02:41:41.284Z,56.80
2022-10-08T02:45:31.103Z,54.70
2022-10-08T02:49:26.721Z,55.20
2022-10-08T02:53:12.256Z,53.20
2022-10-08T02:57:05.877Z,56.90
2022-10-08T03:00:56.243Z,54.50
2022-10-08T03:04:34.110Z,49.80
2022-10-08T03:08:19.748Z,53.10
2022-10-08T03:11:52.111Z,53.30
2022-10-08T03:15:55.033Z,54.00
2022-10-08T03:19:47.850Z,51.40
2022-10-08T03:23:19.308Z,54.70
2022-10-08T03:26:45.973Z,59.60
2022-10-08T03:30:42.435Z,49.30
2022-10-08T03:34:04.795Z,52.30
2022-10-08T03:38:05.024Z,51.60
2022-10-08T03:41:24.063Z,50.50
2022-10-08T03:45:27.854Z,52.80
2022-10-08T03:49:00.913Z,52.50
2022-10-08T03:52:53.429Z,51.30
2022-10-08T03:56:37.030Z,54.20
2022-10-08T03:59:56.815Z,48.00
2022-10-08T04:03:47.963Z,51.30
2022-10-08T04:07:44.339Z,53.30
2022-10-08T04:11:12.897Z,51.20
2022-10-08T04:14:54.015Z,51.70
2022-10-08T04:18:14.783Z,54.20
2022-10-08T04:21:34.151Z,51.70
2022-10-08T04:24:53.957Z,53.50
2022-10-08T04:28:42.775Z,52.60
2022-10-08T04:32:30.149Z,53.70
2022-10-08T04:36:33.974Z,54.00
2022-10-08T04:40:03.169Z,52.40
2022-10-08T04:43:29.202Z,46.80
2022-10-08T04:47:03.616Z,49.00
2022-10-08T04:50:36.275Z,51.30
2022-10-08T04:54:22.691Z,49.40
2022-10-08T04:57:58.919Z,52.80
2022-10-08T05:01:10.019Z,52.50
2022-10-08T05:04:54.892Z,50.70
2022-10-08T05:08:31.700Z,51.50
2022-10-08T05:12:00.209Z,52.00
2022-10-08T05:15:07.880Z,44.70
2022-10-08T05:18:28.741Z,47.60
2022-10-08T05:22:32.497Z,47.60
2022-10-08T05:26:02.622Z,48.10
2022-10-08T05:29:57.429Z,48.30
2022-10-08T05:33:33.502Z,51.70
2022-10-08T05:37:13.572Z,49.30
2022-10-08T05:41:05.758Z,49.30
2022-10-08T05:44:50.933Z,45.60
2022-10-08T05:48:13.205Z,46.30
2022-10-08T05:51:44.428Z,46.30
2022-10-08T05:55:25.627Z,51.90
2022-10-08T05:59:07.732Z,54.80
2022-10-08T06:03:00.208Z,58.10
2022-10-08T06:06:37.077Z,62.50
2022-10-08T06:10:23.798Z,59.80
2022-10-08T06:14:09.867Z,57.40
2022-10-08T06:18:05.112Z,64.40
2022-10-08T06:21:39.803Z,62.30
2022-10-08T06:28:27.507Z,60.60
2022-10-08T06:31:51.911Z,56.50
2022-10-08T06:35:18.127Z,61.60
2022-10-08T06:39:06.339Z,53.40
2022-10-08T06:42:53.043Z,55.40
2022-10-08T06:46:38.297Z,48.30
2022-10-08T06:50:04.385Z,51.10
2022-10-08T06:53:47.836Z,49.60
2022-10-08T06:56:57.352Z,47.20
2022-10-08T06:59:58.020Z,44.50
2022-10-08T07:03:24.475Z,38.60
2022-10-08T07:06:29.662Z,38.10
2022-10-08T07:09:26.229Z,41.80
2022-10-08T07:12:14.010Z,38.30
2022-10-08T07:15:45.956Z,36.20
2022-10-08T07:18:51.108Z,40.00
2022-10-08T07:22:04.515Z,40.20
2022-10-08T07:25:07.778Z,39.20
2022-10-08T07:28:02.396Z,32.40
2022-10-08T07:30:50.101Z,33.50
2022-10-08T07:33:42.894Z,35.40
2022-10-08T07:36:49.828Z,30.40
2022-10-08T07:39:36.765Z,30.90
2022-10-08T07:42:43.076Z,31.50
2022-10-08T07:45:57.323Z,32.90
2022-10-08T07:48:40.714Z,28.00
2022-10-08T07:51:24.046Z,23.00
2022-10-08T07:54:19.131Z,23.90
2022-10-08T07:57:09.414Z,24.40
2022-10-08T08:00:05.674Z,22.10
2022-10-08T08:03:07.108Z,26.80
2022-10-08T08:05:58.958Z,24.10
2022-10-08T08:09:02.271Z,23.00
2022-10-08T08:11:49.350Z,25.10
2022-10-08T08:14:33.632Z,21.50
2022-10-08T08:17:44.272Z,25.20
2022-10-08T08:20:37.710Z,26.60
2022-10-08T08:23:44.965Z,21.30
2022-10-08T08:26:43.572Z,27.80
2022-10-08T08:29:49.740Z,24.50
2022-10-08T08:32:55.605Z,25.80
2022-10-08T08:36:01.554Z,27.70
2022-10-08T08:38:59.405Z,25.20
2022-10-08T08:42:07.439Z,27.50
2022-10-08T08:45:00.913Z,26.30
2022-10-08T08:47:57.569Z,25.70
2022-10-08T08:50:55.859Z,26.20
2022-10-08T08:53:39.314Z,23.40
2022-10-08T08:56:35.845Z,21.80
2022-10-08T08:59:53.036Z,21.50
2022-10-08T09:02:53.657Z,22.40
2022-10-08T09:05:52.251Z,23.20
2022-10-08T09:09:08.814Z,22.30
2022-10-08T09:12:34.925Z,25.10
2022-10-08T09:15:26.883Z,17.10
2022-10-08T09:18:14.297Z,20.60
2022-10-08T09:21:19.778Z,24.70
2022-10-08T09:24:32.679Z,21.10
2022-10-08T09:27:19.445Z,15.80
2022-10-08T09:30:05.712Z,20.90
2022-10-08T09:33:16.276Z,22.30
2022-10-08T09:36:47.848Z,22.30
2022-10-08T09:39:42.526Z,21.00
2022-10-08T09:43:10.964Z,22.10
2022-10-08T09:46:11.866Z,20.30
2022-10-08T09:49:42.663Z,23.30
2022-10-08T09:52:27.638Z,20.00
2022-10-08T09:55:41.242Z,17.40
2022-10-08T09:58:25.135Z,22.40
2022-10-08T10:01:38.590Z,22.30
2022-10-08T10:04:37.006Z,21.60
2022-10-08T10:07:39.618Z,22.40
2022-10-08T10:10:58.503Z,18.90
2022-10-08T10:13:50.019Z,19.70
2022-10-08T10:16:40.856Z,22.40
2022-10-08T10:19:50.946Z,24.20
2022-10-08T10:23:33.112Z,23.50
2022-10-08T10:26:30.167Z,26.00
2022-10-08T10:29:47.856Z,19.20
2022-10-08T10:32:51.717Z,27.50
2022-10-08T10:35:58.407Z,21.00
2022-10-08T10:39:14.356Z,24.50
2022-10-08T10:42:41.600Z,21.00
2022-10-08T10:45:39.506Z,16.70
2022-10-08T10:48:45.762Z,20.10
2022-10-08T10:51:40.178Z,18.00
2022-10-08T10:54:54.246Z,16.70
2022-10-08T10:58:13.164Z,14.30
2022-10-08T11:01:21.940Z,12.70
2022-10-08T11:04:23.087Z,9.20
2022-10-08T11:07:34.851Z,12.80
2022-10-08T11:10:52.868Z,10.80
2022-10-08T11:13:49.188Z,13.10
2022-10-08T11:16:58.390Z,16.90
2022-10-08T11:20:42.049Z,11.70
2022-10-08T11:23:42.015Z,14.70
2022-10-08T11:26:30.113Z,11.20
2022-10-08T11:29:38.230Z,18.00
2022-10-08T11:32:30.656Z,9.70
2022-10-08T11:35:56.863Z,12.20
2022-10-08T11:38:55.366Z,13.60
2022-10-08T11:41:48.174Z,11.60
2022-10-08T11:44:32.217Z,16.80
2022-10-08T11:47:43.313Z,17.50
2022-10-08T11:50:37.103Z,14.50
2022-10-08T11:53:46.081Z,12.40
2022-10-08T11:56:55.104Z,12.10
2022-10-08T11:59:42.576Z,12.70
2022-10-08T12:02:53.636Z,9.00
2022-10-08T12:06:29.155Z,18.30
2022-10-08T12:09:55.365Z,14.50
2022-10-08T12:12:59.956Z,12.90
2022-10-08T12:16:05.203Z,13.90
2022-10-08T12:19:17.708Z,12.60
2022-10-08T12:22:16.583Z,17.40
2022-10-08T12:25:14.150Z,16.60
2022-10-08T12:28:21.651Z,20.20
2022-10-08T12:31:26.297Z,17.90
2022-10-08T12:34:22.892Z,18.30
2022-10-08T12:37:44.242Z,16.20
2022-10-08T12:40:55.053Z,12.00
2022-10-08T12:44:18.289Z,14.80
2022-10-08T12:47:16.557Z,13.50
2022-10-08T12:50:25.769Z,12.90
2022-10-08T12:53:29.461Z,12.90
2022-10-08T12:56:43.803Z,17.40
2022-10-08T12:59:32.039Z,8.00
2022-10-08T13:03:08.671Z,12.80
2022-10-08T13:06:14.919Z,8.60
2022-10-08T13:09:20.753Z,12.80
2022-10-08T13:12:10.787Z,10.60
2022-10-08T13:15:33.538Z,10.00
2022-10-08T13:19:14.900Z,12.10
2022-10-08T13:22:25.240Z,11.70
2022-10-08T13:25:53.237Z,15.90
2022-10-08T13:28:59.249Z,14.60
2022-10-08T13:32:31.770Z,13.50
2022-10-08T13:35:36.215Z,16.00
2022-10-08T13:39:11.032Z,12.40
2022-10-08T13:42:50.655Z,8.80
2022-10-08T13:45:47.311Z,15.00
2022-10-08T13:48:45.075Z,10.90
2022-10-08T13:52:19.128Z,14.50
2022-10-08T13:55:27.032Z,10.00
2022-10-08T13:58:33.438Z,9.70
2022-10-08T14:01:37.832Z,11.90
2022-10-08T14:04:23.977Z,14.30
2022-10-08T14:07:49.716Z,10.70
2022-10-08T14:11:37.665Z,14.50
2022-10-08T14:15:20.652Z,9.10
2022-10-08T14:18:16.026Z,7.10
2022-10-08T14:21:24.029Z,12.40
2022-10-08T14:24:38.844Z,11.10
2022-10-08T14:28:17.996Z,13.90
2022-10-08T14:31:34.469Z,12.20
2022-10-08T14:38:15.401Z,19.90
2022-10-08T14:41:07.953Z,16.00
2022-10-08T14:44:17.625Z,14.50
2022-10-08T14:47:09.830Z,10.30
2022-10-08T14:49:52.785Z,19.80
2022-10-08T14:52:47.858Z,22.60
2022-10-08T14:55:54.457Z,11.50
2022-10-08T14:59:08.371Z,21.00
2022-10-08T15:01:54.218Z,12.20
2022-10-08T15:04:46.174Z,12.60
2022-10-08T15:07:49.967Z,11.60
2022-10-08T15:10:46.997Z,10.80
2022-10-08T15:13:44.620Z,13.20
2022-10-08T15:16:50.816Z,16.00
2022-10-08T15:20:03.390Z,11.50
2022-10-08T15:22:56.845Z,11.90
2022-10-08T15:25:59.406Z,14.60
2022-10-08T15:28:46.875Z,10.30
2022-10-08T15:31:51.363Z,17.00
2022-10-08T15:34:46.800Z,13.40
2022-10-08T15:37:40.192Z,16.50
2022-10-08T15:40:29.100Z,10.20
2022-10-08T15:43:24.234Z,11.80
2022-10-08T15:46:22.621Z,8.00
2022-10-08T15:49:06.540Z,11.60
2022-10-08T15:51:58.197Z,10.30
2022-10-08T15:54:45.816Z,12.70
2022-10-08T15:57:42.851Z,11.60
2022-10-08T16:00:29.208Z,9.90
2022-10-08T16:03:57.760Z,13.20
2022-10-08T16:06:56.236Z,13.00
2022-10-08T16:09:52.781Z,9.50
2022-10-08T16:12:59.311Z,13.00
2022-10-08T16:16:05.797Z,11.60
2022-10-08T16:19:50.755Z,10.30
2022-10-08T16:22:47.428Z,12.00
2022-10-08T16:26:30.853Z,13.40
2022-10-08T16:29:55.387Z,10.40
2022-10-08T16:33:04.289Z,7.60
2022-10-08T16:36:12.227Z,10.50
2022-10-08T16:39:18.379Z,9.20
2022-10-08T16:42:07.087Z,17.20
2022-10-08T16:45:40.980Z,9.90
2022-10-08T16:48:40.970Z,11.00
2022-10-08T16:51:36.097Z,13.30
2022-10-08T16:54:39.875Z,10.50
2022-10-08T16:57:51.474Z,16.00
2022-10-08T17:00:55.935Z,13.60
2022-10-08T17:03:48.855Z,14.40
2022-10-08T17:06:58.106Z,13.50
2022-10-08T17:10:24.688Z,12.20
2022-10-08T17:14:02.892Z,16.20
2022-10-08T17:16:58.790Z,15.00
2022-10-08T17:20:08.020Z,14.60
2022-10-08T17:23:38.358Z,17.70
2022-10-08T17:27:13.509Z,12.40
2022-10-08T17:30:38.291Z,14.40
2022-10-08T17:34:02.608Z,17.30
2022-10-08T17:37:46.516Z,20.70
2022-10-08T17:41:09.852Z,17.30
2022-10-08T17:44:47.108Z,14.10
2022-10-08T17:48:18.297Z,18.90
2022-10-08T17:52:22.183Z,19.40
2022-10-08T17:55:25.013Z,24.50
2022-10-08T17:58:22.601Z,21.10
2022-10-08T18:01:46.563Z,24.50
2022-10-08T18:04:39.871Z,17.20
2022-10-08T18:08:10.585Z,16.90
2022-10-08T18:11:18.510Z,17.80
2022-10-08T18:14:37.845Z,17.40
2022-10-08T18:17:43.912Z,16.20
2022-10-08T18:21:12.125Z,20.30
2022-10-08T18:24:55.533Z,17.90
2022-10-08T18:28:13.483Z,17.70
2022-10-08T18:32:17.403Z,20.90
2022-10-08T18:36:03.506Z,16.50
2022-10-08T18:39:28.828Z,26.00
2022-10-08T18:43:15.470Z,33.00
2022-10-08T18:46:42.799Z,42.00
2022-10-08T18:49:44.999Z,29.20
2022-10-08T18:53:17.382Z,34.80
2022-10-08T18:56:28.392Z,26.50
2022-10-08T19:00:14.533Z,24.50
2022-10-08T19:03:40.956Z,22.80
2022-10-08T19:07:23.558Z,20.00
2022-10-08T19:10:41.336Z,27.60
2022-10-08T19:13:55.056Z,29.20
2022-10-08T19:17:23.848Z,24.40
2022-10-08T19:21:00.092Z,28.00
2022-10-08T19:24:47.285Z,26.70
2022-10-08T19:27:59.807Z,24.10
2022-10-08T19:31:47.502Z,20.50
2022-10-08T19:35:28.052Z,19.90
2022-10-08T19:38:45.453Z,23.30
2022-10-08T19:42:23.146Z,21.50
2022-10-08T19:45:53.995Z,21.70
2022-10-08T19:49:24.343Z,18.90
2022-10-08T19:52:51.927Z,18.50
2022-10-08T19:56:08.320Z,16.30
2022-10-08T19:59:31.703Z,14.30
2022-10-08T20:02:20.391Z,16.10
2022-10-08T20:05:54.588Z,17.10
2022-10-08T20:09:19.665Z,11.30
2022-10-08T20:12:25.622Z,15.90
2022-10-08T20:15:27.057Z,13.70
2022-10-08T20:18:51.096Z,14.60
2022-10-08T20:22:31.645Z,10.20
2022-10-08T20:26:05.551Z,14.90
2022-10-08T20:29:29.986Z,13.40
2022-10-08T20:33:13.224Z,17.70
2022-10-08T20:36:13.565Z,11.30
2022-10-08T20:39:49.083Z,8.30
2022-10-08T20:43:32.844Z,12.80
2022-10-08T20:47:04.517Z,14.50
2022-10-08T20:50:58.552Z,12.00
2022-10-08T20:53:57.184Z,12.10
2022-10-08T20:57:23.831Z,13.70
2022-10-08T21:00:20.353Z,13.30
2022-10-08T21:03:45.295Z,11.90
2022-10-08T21:07:29.748Z,10.20
2022-10-08T21:10:48.173Z,10.90
2022-10-08T21:14:06.395Z,11.20
2022-10-08T21:17:31.365Z,10.80
2022-10-08T21:20:39.885Z,10.00
2022-10-08T21:23:53.482Z,12.30
2022-10-08T21:27:00.245Z,8.60
2022-10-08T21:30:26.959Z,12.20
2022-10-08T21:33:57.001Z,13.70
2022-10-08T21:36:45.283Z,10.70
2022-10-08T21:40:25.322Z,15.00
2022-10-08T21:43:53.861Z,16.00
2022-10-08T21:47:48.934Z,23.70
2022-10-08T21:51:47.861Z,19.70
2022-10-08T21:55:09.573Z,21.80
2022-10-08T21:58:25.871Z,18.20
2022-10-08T22:01:52.693Z,23.40
2022-10-08T22:05:14.942Z,19.30
2022-10-08T22:08:38.826Z,16.80
2022-10-08T22:11:26.469Z,17.10
2022-10-08T22:14:38.517Z,14.70
2022-10-08T22:17:29.741Z,14.40
2022-10-08T22:20:52.997Z,17.20
2022-10-08T22:24:36.309Z,17.10
2022-10-08T22:28:07.495Z,12.20
2022-10-08T22:31:55.229Z,12.20
2022-10-08T22:35:24.151Z,10.50
2022-10-08T22:38:45.720Z,11.80
2022-10-08T22:41:57.407Z,12.20
2022-10-08T22:45:12.655Z,9.90
2022-10-08T22:48:33.328Z,8.60
2022-10-08T22:51:39.971Z,9.10
2022-10-08T22:55:04.945Z,9.00
2022-10-08T22:58:50.296Z,10.20
2022-10-08T23:02:27.753Z,11.80
2022-10-08T23:05:36.655Z,13.50
2022-10-08T23:09:09.104Z,12.70
2022-10-08T23:12:11.554Z,7.30
2022-10-08T23:16:03.545Z,11.60
2022-10-08T23:19:38.445Z,11.40
2022-10-08T23:23:16.075Z,14.40
2022-10-08T23:26:24.555Z,12.10
2022-10-08T23:29:51.726Z,10.90
2022-10-08T23:33:19.468Z,10.00
2022-10-08T23:36:39.119Z,12.50
2022-10-08T23:40:25.908Z,14.60
2022-10-08T23:43:49.039Z,9.70
2022-10-08T23:47:10.107Z,10.10
2022-10-08T23:50:47.638Z,12.30
2022-10-08T23:54:21.239Z,9.20
2022-10-08T23:57:37.287Z,13.00
